Time;durP1;ratioP1;P1;durP2;ratioP2;P2;SDS_P1;SDS_P2;PMS_P1;PMS_P2;Temp;Humidity;BMP_temperature;BMP_pressure;BME280_temperature;BME280_humidity;BME280_pressure;Samples;Min_cycle;Max_cycle;Signal;HPM_P1;HPM_P2
2022/06/12 00:02:28;;;;;;;16.67;14.90;;;;;;;20.21;100.00;100728.41;5094431;28;20024;-77
2022/06/12 00:05:18;;;;;;;22.90;17.17;;;;;;;20.75;100.00;100727.88;5094825;28;20038;-76
2022/06/12 00:08:05;;;;;;;21.67;16.45;;;;;;;20.55;100.00;100736.16;5094358;28;20024;-77
2022/06/12 00:10:53;;;;;;;21.70;17.13;;;;;;;20.64;100.00;100725.84;5095496;28;20028;-77
2022/06/12 00:13:44;;;;;;;20.90;16.63;;;;;;;20.70;100.00;100737.94;5081127;28;20131;-76
2022/06/12 00:16:32;;;;;;;21.30;16.45;;;;;;;20.59;100.00;100738.56;5095401;28;20392;-77
2022/06/12 00:19:19;;;;;;;21.95;17.98;;;;;;;20.53;100.00;100738.06;5096351;28;20402;-76
2022/06/12 00:22:05;;;;;;;21.73;17.23;;;;;;;20.62;100.00;100737.53;5095653;28;20027;-77
2022/06/12 00:24:51;;;;;;;21.95;16.50;;;;;;;20.61;100.00;100743.81;5095859;28;20035;-76
2022/06/12 00:27:37;;;;;;;29.55;16.50;;;;;;;20.62;100.00;100742.88;5095864;28;20035;-77
2022/06/12 00:30:25;;;;;;;32.60;21.58;;;;;;;20.48;100.00;100738.34;5094041;28;20160;-77
2022/06/12 00:33:11;;;;;;;23.35;17.95;;;;;;;20.40;100.00;100740.56;5094269;28;20032;-77
2022/06/12 00:35:56;;;;;;;26.10;17.98;;;;;;;20.40;100.00;100727.28;5080098;28;20093;-77
2022/06/12 00:38:42;;;;;;;24.73;19.48;;;;;;;20.26;100.00;100724.56;5094021;28;20028;-76
2022/06/12 00:41:28;;;;;;;26.65;19.55;;;;;;;20.43;100.00;100724.44;5094425;28;20529;-77
2022/06/12 00:44:18;;;;;;;21.67;17.45;;;;;;;20.39;100.00;100719.38;5094820;28;20036;-77
2022/06/12 00:47:08;;;;;;;22.90;17.17;;;;;;;20.48;100.00;100717.03;5080039;28;20027;-77
2022/06/12 00:49:59;;;;;;;31.73;19.98;;;;;;;20.51;100.00;100722.19;5094780;28;20056;-77
2022/06/12 00:52:49;;;;;;;24.35;18.08;;;;;;;20.48;100.00;100722.38;5079882;28;20039;-77
2022/06/12 00:55:50;;;;;;;22.85;18.30;;;;;;;20.22;100.00;100716.81;5095001;28;20043;-78
2022/06/12 00:58:41;;;;;;;26.20;19.98;;;;;;;20.40;100.00;100713.09;5094290;28;20103;-77
2022/06/12 01:01:35;;;;;;;24.20;18.38;;;;;;;20.37;100.00;100708.81;5093773;28;20093;-77
2022/06/12 01:07:32;;;;;;;20.65;17.55;;;;;;;20.36;100.00;100712.41;5082193;28;20023;-77
2022/06/12 01:10:20;;;;;;;27.05;20.85;;;;;;;20.45;100.00;100711.03;5094965;28;20047;-77
2022/06/12 01:13:23;;;;;;;25.80;19.92;;;;;;;20.64;100.00;100709.00;5080043;28;20023;-77
2022/06/12 01:16:15;;;;;;;26.35;20.73;;;;;;;20.57;100.00;100703.19;5072850;28;20135;-76
2022/06/12 01:19:04;;;;;;;22.48;18.60;;;;;;;20.64;100.00;100706.34;5074261;28;20128;-77
2022/06/12 01:22:27;;;;;;;27.35;20.70;;;;;;;20.54;100.00;100702.53;5073467;28;20413;-76
2022/06/12 01:25:22;;;;;;;23.00;19.63;;;;;;;20.53;100.00;100704.31;5074463;28;20071;-76
2022/06/12 01:28:23;;;;;;;23.50;18.90;;;;;;;20.64;100.00;100696.56;5074716;28;20037;-77
2022/06/12 01:31:14;;;;;;;27.65;20.48;;;;;;;20.51;100.00;100708.88;5073822;28;20437;-77
2022/06/12 01:34:08;;;;;;;25.90;20.48;;;;;;;20.57;100.00;100697.84;5074148;28;20032;-77
2022/06/12 01:37:12;;;;;;;23.65;20.33;;;;;;;20.71;100.00;100702.38;5073712;28;20039;-76
2022/06/12 01:40:19;;;;;;;28.40;21.02;;;;;;;20.66;100.00;100696.47;5074603;28;20052;-77
2022/06/12 01:43:43;;;;;;;22.33;18.65;;;;;;;20.68;100.00;100697.22;5074535;28;20066;-77
2022/06/12 01:46:41;;;;;;;24.58;19.75;;;;;;;20.60;100.00;100700.34;5073941;28;20035;-77
2022/06/12 01:49:45;;;;;;;25.38;20.60;;;;;;;20.74;100.00;100707.53;5074190;28;20024;-77
2022/06/12 01:52:51;;;;;;;25.08;19.67;;;;;;;20.59;100.00;100695.97;5073551;28;20036;-77
2022/06/12 01:56:02;;;;;;;28.98;21.13;;;;;;;20.58;100.00;100701.38;5074282;28;20081;-77
2022/06/12 01:59:00;;;;;;;31.42;23.38;;;;;;;20.52;100.00;100707.06;5074119;28;20028;-77
2022/06/12 02:01:58;;;;;;;25.48;21.20;;;;;;;20.65;100.00;100700.94;5073901;28;20031;-77
2022/06/12 02:04:54;;;;;;;26.08;21.27;;;;;;;20.61;100.00;100695.91;5073284;28;20035;-77
2022/06/12 02:07:47;;;;;;;27.17;20.25;;;;;;;20.63;100.00;100693.97;5074187;28;20028;-77
2022/06/12 02:10:40;;;;;;;28.90;22.38;;;;;;;20.59;100.00;100703.97;5074365;28;20031;-77
2022/06/12 02:13:38;;;;;;;25.85;21.35;;;;;;;20.57;100.00;100702.34;5073791;28;20028;-77
2022/06/12 02:16:33;;;;;;;26.25;21.17;;;;;;;20.60;100.00;100704.81;5073237;28;20122;-76
2022/06/12 02:19:25;;;;;;;26.70;21.63;;;;;;;20.73;100.00;100709.31;5074289;28;20054;-77
2022/06/12 02:22:17;;;;;;;27.90;21.48;;;;;;;20.66;100.00;100705.28;5074174;28;20029;-77
2022/06/12 02:25:13;;;;;;;27.20;21.08;;;;;;;20.54;100.00;100702.53;5074062;28;20028;-77
2022/06/12 02:28:22;;;;;;;26.05;19.08;;;;;;;20.67;100.00;100709.69;5073030;28;20407;-77
2022/06/12 02:31:16;;;;;;;26.60;21.95;;;;;;;20.64;100.00;100711.66;5073751;28;20058;-77
2022/06/12 02:34:12;;;;;;;28.85;22.00;;;;;;;20.54;100.00;100714.00;5073271;28;20028;-77
2022/06/12 02:37:04;;;;;;;23.23;19.52;;;;;;;20.58;100.00;100720.03;5075794;28;20020;-77
2022/06/12 02:39:58;;;;;;;27.10;20.40;;;;;;;20.49;100.00;100716.09;5077060;28;20047;-76
2022/06/12 02:42:48;;;;;;;23.88;20.23;;;;;;;20.45;100.00;100714.53;5076695;28;20103;-76
2022/06/12 02:45:44;;;;;;;22.83;19.63;;;;;;;20.59;100.00;100717.28;5076368;28;20016;-77
2022/06/12 02:48:31;;;;;;;26.35;19.83;;;;;;;20.40;100.00;100718.41;5077268;28;20028;-77
2022/06/12 02:51:36;;;;;;;25.85;20.45;;;;;;;20.64;100.00;100712.53;5076860;28;20024;-76
2022/06/12 02:54:52;;;;;;;24.73;19.60;;;;;;;20.42;100.00;100716.53;5076887;28;20025;-76
2022/06/12 02:58:06;;;;;;;25.02;20.13;;;;;;;20.54;100.00;100719.31;5076880;28;20138;-77
2022/06/12 03:01:01;;;;;;;22.98;19.25;;;;;;;20.65;100.00;100713.41;5077321;28;20085;-76
2022/06/12 03:03:57;;;;;;;27.45;19.88;;;;;;;20.71;100.00;100707.69;5076571;28;20412;-76
2022/06/12 03:06:43;;;;;;;26.08;20.92;;;;;;;20.74;100.00;100707.53;5076751;28;20032;-76
2022/06/12 03:09:29;;;;;;;29.98;22.10;;;;;;;20.68;100.00;100706.09;5076400;28;20056;-77
2022/06/12 03:12:15;;;;;;;24.85;19.55;;;;;;;20.57;100.00;100700.53;5076656;28;20026;-76
2022/06/12 03:15:08;;;;;;;24.30;19.33;;;;;;;20.61;100.00;100707.38;5083186;28;20099;-76
2022/06/12 03:17:54;;;;;;;25.02;19.88;;;;;;;20.58;100.00;100709.38;5097556;28;20024;-77
2022/06/12 03:20:54;;;;;;;22.23;19.38;;;;;;;20.61;100.00;100702.06;5095432;28;20125;-77
2022/06/12 03:23:59;;;;;;;20.77;18.08;;;;;;;20.58;100.00;100702.22;5082552;28;20034;-77
2022/06/12 03:26:59;;;;;;;21.33;17.52;;;;;;;20.61;100.00;100704.72;5096581;28;20082;-77
2022/06/12 03:30:08;;;;;;;23.33;20.05;;;;;;;20.75;100.00;100698.59;5095328;28;20074;-77
2022/06/12 03:33:12;;;;;;;25.45;19.80;;;;;;;20.59;100.00;100703.97;5096806;28;20020;-77
2022/06/12 03:36:02;;;;;;;21.95;18.15;;;;;;;20.84;100.00;100696.22;5081472;28;20028;-76
2022/06/12 03:39:02;;;;;;;19.98;17.70;;;;;;;20.76;100.00;100698.50;5095228;28;20510;-77
2022/06/12 03:42:07;;;;;;;21.75;17.13;;;;;;;20.41;100.00;100699.69;5096786;28;20033;-77
2022/06/12 03:45:15;;;;;;;21.65;17.75;;;;;;;20.58;100.00;100701.38;5095608;28;20055;-77
2022/06/12 03:48:10;;;;;;;24.33;18.63;;;;;;;20.65;100.00;100708.91;5094999;28;20353;-78
2022/06/12 03:51:14;;;;;;;23.10;17.90;;;;;;;20.40;100.00;100698.00;5094909;28;20449;-76
2022/06/12 03:54:09;;;;;;;22.60;19.50;;;;;;;20.58;100.00;100704.06;5095808;28;20460;-76
2022/06/12 04:00:17;;;;;;;21.23;18.00;;;;;;;21.06;100.00;100699.34;5095576;28;20028;-76
2022/06/12 04:03:44;;;;;;;21.08;18.27;;;;;;;21.00;100.00;100702.38;5095640;28;20368;-76
2022/06/12 04:06:32;;;;;;;21.75;17.83;;;;;;;20.95;100.00;100695.63;5032883;28;20021;-77
2022/06/12 04:09:25;;;;;;;25.40;18.52;;;;;;;21.09;100.00;100695.66;5033836;28;20033;-78
2022/06/12 04:12:17;;;;;;;18.50;16.58;;;;;;;21.03;100.00;100693.34;5091683;28;20047;-78
2022/06/12 04:15:21;;;;;;;22.88;17.73;;;;;;;20.82;100.00;100699.94;5094673;28;20436;-78
2022/06/12 04:18:07;;;;;;;24.00;18.45;;;;;;;20.83;100.00;100702.53;5095230;28;20035;-77
2022/06/12 04:20:57;;;;;;;20.02;16.73;;;;;;;20.79;100.00;100702.78;5095498;28;20039;-78
2022/06/12 04:24:07;;;;;;;22.52;16.85;;;;;;;20.86;100.00;100696.97;5081507;28;20019;-76
2022/06/12 04:27:06;;;;;;;22.48;18.40;;;;;;;21.02;100.00;100696.97;5094016;28;20444;-78
2022/06/12 04:30:18;;;;;;;21.73;16.40;;;;;;;21.12;100.00;100690.13;5095033;28;20463;-77
2022/06/12 04:33:36;;;;;;;20.85;16.38;;;;;;;20.99;100.00;100698.03;5079669;28;20038;-77
2022/06/12 04:36:24;;;;;;;20.90;17.92;;;;;;;21.04;100.00;100690.59;5096102;28;20024;-77
2022/06/12 04:39:12;;;;;;;20.13;16.92;;;;;;;21.04;100.00;100698.59;5081032;28;20019;-76
2022/06/12 04:41:58;;;;;;;19.08;16.13;;;;;;;21.18;100.00;100708.41;5095733;28;20111;-77
2022/06/12 04:44:44;;;;;;;21.67;16.92;;;;;;;21.28;100.00;100705.09;5094121;28;20032;-77
2022/06/12 04:47:33;;;;;;;21.17;17.50;;;;;;;21.38;100.00;100714.22;5094197;28;20038;-76
2022/06/12 04:50:19;;;;;;;21.75;17.52;;;;;;;21.21;100.00;100717.06;5094969;28;20023;-78
2022/06/12 04:53:05;;;;;;;17.85;15.82;;;;;;;21.46;100.00;100719.94;5093557;28;20024;-77
2022/06/12 04:55:51;;;;;;;23.67;16.40;;;;;;;21.10;100.00;100713.34;5093929;28;20136;-77
2022/06/12 04:58:38;;;;;;;19.50;16.30;;;;;;;21.24;100.00;100724.00;5093890;28;20035;-77
2022/06/12 05:01:24;;;;;;;18.80;16.13;;;;;;;21.27;100.00;100716.72;5095642;28;20047;-77
2022/06/12 05:04:10;;;;;;;20.02;16.55;;;;;;;21.08;100.00;100712.56;5094473;28;20055;-77
2022/06/12 05:06:56;;;;;;;20.13;17.35;;;;;;;21.16;100.00;100712.97;5094754;28;20027;-77
2022/06/12 05:09:43;;;;;;;19.77;17.08;;;;;;;21.64;100.00;100717.94;5094650;28;20020;-78
2022/06/12 05:12:29;;;;;;;17.27;14.98;;;;;;;21.39;100.00;100723.97;5093738;28;20035;-78
2022/06/12 05:15:14;;;;;;;19.45;16.00;;;;;;;21.50;100.00;100731.28;5074026;28;20048;-80
2022/06/12 05:18:01;;;;;;;20.80;16.38;;;;;;;21.46;100.00;100727.09;5074929;28;20040;-77
2022/06/12 05:20:47;;;;;;;20.60;17.25;;;;;;;21.45;100.00;100733.34;5074125;28;20111;-78
2022/06/12 05:23:33;;;;;;;16.70;14.98;;;;;;;21.66;100.00;100737.38;5074661;28;20024;-78
2022/06/12 05:26:19;;;;;;;17.90;15.07;;;;;;;21.65;100.00;100747.19;5075084;28;20020;-78
2022/06/12 05:29:10;;;;;;;20.42;16.05;;;;;;;21.63;100.00;100746.44;5074496;28;20036;-77
2022/06/12 05:31:56;;;;;;;18.35;15.18;;;;;;;21.45;100.00;100739.56;5074084;28;20024;-77
2022/06/12 05:34:45;;;;;;;16.00;14.27;;;;;;;21.64;100.00;100739.25;5074045;28;20024;-77
2022/06/12 05:37:31;;;;;;;19.13;14.35;;;;;;;21.67;100.00;100739.94;5074258;28;20075;-77
2022/06/12 05:40:21;;;;;;;16.75;14.32;;;;;;;22.07;100.00;100741.81;5074592;28;20036;-76
2022/06/12 05:43:08;;;;;;;20.30;14.02;;;;;;;21.79;100.00;100741.84;5073669;28;20032;-77
2022/06/12 05:45:55;;;;;;;17.33;14.23;;;;;;;21.99;100.00;100752.13;5074620;28;20025;-77
2022/06/12 05:48:42;;;;;;;19.30;15.13;;;;;;;22.00;100.00;100748.53;5074338;28;20048;-77
2022/06/12 05:51:28;;;;;;;18.00;13.43;;;;;;;22.11;100.00;100751.34;5073511;28;20040;-76
2022/06/12 05:54:14;;;;;;;14.60;12.95;;;;;;;22.03;100.00;100758.97;5074260;28;20368;-76
2022/06/12 05:57:00;;;;;;;17.00;13.13;;;;;;;22.03;100.00;100755.47;5073766;28;20024;-77
2022/06/12 05:59:45;;;;;;;19.85;14.30;;;;;;;22.17;100.00;100752.75;5074137;28;20100;-77
2022/06/12 06:02:31;;;;;;;16.95;13.30;;;;;;;22.34;100.00;100757.88;5073880;28;20024;-77
2022/06/12 06:05:18;;;;;;;18.58;12.75;;;;;;;22.42;100.00;100763.59;5073205;28;20046;-77
2022/06/12 06:08:05;;;;;;;18.92;13.18;;;;;;;22.32;100.00;100762.44;5073835;28;20089;-77
2022/06/12 06:10:51;;;;;;;14.95;11.88;;;;;;;22.32;100.00;100766.00;5075290;28;20043;-77
2022/06/12 06:13:37;;;;;;;16.88;13.85;;;;;;;22.14;100.00;100763.66;5077529;28;20032;-77
2022/06/12 06:16:23;;;;;;;17.48;12.70;;;;;;;22.07;100.00;100771.16;5096016;28;20427;-77
2022/06/12 06:19:11;;;;;;;15.18;12.48;;;;;;;22.52;100.00;100770.06;5099225;28;20367;-77
2022/06/12 06:21:57;;;;;;;19.42;12.88;;;;;;;22.52;100.00;100762.91;5097836;28;20016;-77
2022/06/12 06:24:43;;;;;;;15.90;12.00;;;;;;;22.48;100.00;100764.06;5083678;28;20380;-78
2022/06/12 06:27:29;;;;;;;16.45;12.10;;;;;;;22.90;100.00;100763.88;5083271;28;20035;-77
2022/06/12 06:30:14;;;;;;;13.77;12.07;;;;;;;22.96;100.00;100767.94;5083817;28;20058;-77
2022/06/12 06:33:01;;;;;;;17.63;13.15;;;;;;;22.97;100.00;100769.66;5096346;28;20453;-78
2022/06/12 06:35:47;;;;;;;17.48;12.85;;;;;;;22.95;100.00;100763.56;5097345;28;20031;-77
2022/06/12 06:38:32;;;;;;;13.68;12.02;;;;;;;22.73;100.00;100761.47;5096493;28;20028;-77
2022/06/12 06:41:19;;;;;;;18.08;13.07;;;;;;;22.92;100.00;100769.13;5096721;28;20028;-77
2022/06/12 06:47:09;;;;;;;17.08;12.57;;;;;;;23.07;100.00;100768.94;5097677;28;20062;-77
2022/06/12 06:49:55;;;;;;;12.55;11.25;;;;;;;23.16;100.00;100767.47;5096897;28;20020;-76
2022/06/12 06:52:41;;;;;;;16.15;12.50;;;;;;;22.66;100.00;100768.19;5096179;28;20528;-77
2022/06/12 06:55:28;;;;;;;18.27;12.55;;;;;;;22.95;100.00;100763.56;5096335;28;20027;-78
2022/06/12 06:58:18;;;;;;;16.38;13.60;;;;;;;22.84;100.00;100769.66;5097331;28;20031;-78
2022/06/12 07:01:05;;;;;;;16.85;12.38;;;;;;;22.81;100.00;100766.31;5083021;28;20466;-77
2022/06/12 07:03:53;;;;;;;16.55;12.20;;;;;;;22.54;100.00;100760.97;5082872;28;20043;-77
2022/06/12 07:06:40;;;;;;;16.60;12.38;;;;;;;22.52;100.00;100768.25;5083344;28;20408;-78
2022/06/12 07:09:25;;;;;;;16.17;13.13;;;;;;;22.48;100.00;100761.41;5081577;28;20577;-77
2022/06/12 07:12:11;;;;;;;18.05;12.80;;;;;;;22.96;100.00;100763.47;5095868;28;20131;-78
2022/06/12 07:14:57;;;;;;;15.00;11.57;;;;;;;22.69;100.00;100764.44;5095285;28;20079;-78
2022/06/12 07:17:43;;;;;;;15.65;12.13;;;;;;;22.85;100.00;100770.47;5095713;28;20093;-78
2022/06/12 07:20:32;;;;;;;14.00;11.57;;;;;;;22.99;100.00;100768.59;5096949;28;20489;-77
2022/06/12 07:23:21;;;;;;;14.88;12.13;;;;;;;22.81;100.00;100771.66;5095761;28;20345;-79
2022/06/12 07:26:14;;;;;;;15.65;11.57;;;;;;;23.10;100.00;100770.53;5081563;28;20517;-80
2022/06/12 07:29:04;;;;;;;15.85;11.55;;;;;;;22.95;100.00;100768.91;5096796;28;20097;-78
2022/06/12 07:31:50;;;;;;;19.77;11.65;;;;;;;23.27;100.00;100770.28;5096229;28;20020;-79
2022/06/12 07:34:36;;;;;;;14.30;11.00;;;;;;;23.19;100.00;100773.44;5095938;28;20023;-77
2022/06/12 07:37:22;;;;;;;12.30;10.57;;;;;;;23.68;100.00;100778.97;5095428;28;20104;-81
2022/06/12 07:40:13;;;;;;;16.15;10.90;;;;;;;23.80;100.00;100770.06;5081613;28;20074;-77
2022/06/12 07:42:59;;;;;;;16.88;11.70;;;;;;;23.94;100.00;100769.97;5095734;28;20020;-79
2022/06/12 07:45:46;;;;;;;14.40;10.52;;;;;;;24.36;100.00;100776.72;5095666;28;20016;-79
2022/06/12 07:48:35;;;;;;;11.23;9.90;;;;;;;24.41;100.00;100777.22;5095362;28;20181;-80
2022/06/12 07:51:21;;;;;;;11.93;10.73;;;;;;;23.81;100.00;100778.94;5081328;28;20028;-80
2022/06/12 07:54:10;;;;;;;13.07;9.95;;;;;;;24.57;100.00;100780.47;5096990;28;20067;-82
2022/06/12 07:56:57;;;;;;;13.23;11.82;;;;;;;24.77;100.00;100779.88;5095866;28;20024;-79
2022/06/12 07:59:43;;;;;;;10.43;9.48;;;;;;;24.89;100.00;100777.16;5082405;28;20341;-79
2022/06/12 08:02:29;;;;;;;14.30;10.77;;;;;;;25.14;100.00;100773.44;5095552;28;20035;-77
2022/06/12 08:05:17;;;;;;;13.73;10.82;;;;;;;25.08;100.00;100776.59;5095840;28;20459;-80
2022/06/12 08:08:03;;;;;;;12.75;10.35;;;;;;;24.86;100.00;100780.06;5095937;28;20040;-81
2022/06/12 08:10:49;;;;;;;11.30;9.70;;;;;;;24.92;100.00;100771.56;5097477;28;20036;-84
2022/06/12 08:13:35;;;;;;;11.57;9.70;;;;;;;25.52;100.00;100779.44;5096889;28;20020;-78
2022/06/12 08:16:21;;;;;;;11.68;9.68;;;;;;;25.46;100.00;100774.53;5094999;28;20044;-77
2022/06/12 08:20:24;;;;;;;11.70;9.43;;;;;;;25.20;100.00;100773.81;5095326;28;20024;-83
2022/06/12 08:22:16;;;;;;;11.38;9.82;;;;;;;25.80;100.00;100773.59;5095353;28;20107;-80
2022/06/12 08:25:02;;;;;;;13.57;9.68;;;;;;;25.72;100.00;100774.19;5095714;28;20032;-82
2022/06/12 08:27:48;;;;;;;12.13;9.35;;;;;;;25.75;100.00;100770.41;5080870;28;20051;-81
2022/06/12 08:30:34;;;;;;;12.98;8.80;;;;;;;25.40;100.00;100781.22;5095579;28;20031;-77
2022/06/12 08:33:22;;;;;;;12.07;10.27;;;;;;;26.15;100.00;100779.72;5094822;28;20032;-79
2022/06/12 08:36:11;;;;;;;10.43;9.25;;;;;;;25.55;100.00;100776.53;5095653;28;20036;-77
2022/06/12 08:38:57;;;;;;;12.52;10.38;;;;;;;25.63;100.00;100784.81;5095587;28;20368;-79
2022/06/12 08:41:50;;;;;;;12.65;9.48;;;;;;;25.80;100.00;100784.34;5081405;28;20027;-78
2022/06/12 08:44:45;;;;;;;10.52;9.30;;;;;;;25.94;100.00;100789.50;5094548;28;20047;-78
2022/06/12 08:48:05;;;;;;;12.98;9.15;;;;;;;25.81;100.00;100778.84;5095765;28;20024;-83
2022/06/12 08:51:02;;;;;;;12.38;9.57;;;;;;;25.94;100.00;100782.31;5094970;28;20341;-78
2022/06/12 08:53:54;;;;;;;10.35;9.00;;;;;;;26.15;100.00;100780.56;5095642;28;20043;-80
2022/06/12 08:56:50;;;;;;;11.82;8.93;;;;;;;26.13;100.00;100771.81;5094708;28;20028;-79
2022/06/12 08:59:45;;;;;;;10.13;8.65;;;;;;;26.11;100.00;100773.75;5095194;28;20425;-77
2022/06/12 09:02:34;;;;;;;9.05;8.15;;;;;;;26.77;100.00;100786.22;5095558;28;20052;-79
2022/06/12 09:05:34;;;;;;;12.68;9.65;;;;;;;26.64;100.00;100772.91;5095984;28;20107;-81
2022/06/12 09:08:43;;;;;;;10.93;8.70;;;;;;;26.22;100.00;100772.88;5094737;28;20028;-76
2022/06/12 09:11:47;;;;;;;9.43;8.48;;;;;;;26.31;100.00;100772.09;5080216;28;20023;-76
2022/06/12 09:14:59;;;;;;;10.85;8.77;;;;;;;26.66;100.00;100767.41;5079447;28;20108;-77
2022/06/12 09:18:06;;;;;;;31.65;20.73;;;;;;;27.17;100.00;100765.72;5080447;28;20043;-76
2022/06/12 09:21:08;;;;;;;11.02;8.60;;;;;;;27.50;100.00;100757.47;5095085;28;20031;-77
2022/06/12 09:24:18;;;;;;;11.45;8.07;;;;;;;28.26;100.00;100762.34;5080071;28;20440;-76
2022/06/12 09:27:18;;;;;;;9.75;8.13;;;;;;;27.63;100.00;100762.63;5079914;28;20039;-76
2022/06/12 09:30:13;;;;;;;12.07;8.57;;;;;;;27.15;100.00;100759.59;5094277;28;20024;-77
2022/06/12 09:33:13;;;;;;;8.57;7.78;;;;;;;27.74;100.00;100749.09;5079472;28;20464;-77
2022/06/12 09:36:21;;;;;;;9.23;7.03;;;;;;;28.31;100.00;100752.88;5080387;28;20043;-76
2022/06/12 09:39:42;;;;;;;10.32;7.80;;;;;;;27.63;100.00;100750.03;5093624;28;20023;-76
2022/06/12 09:42:45;;;;;;;8.20;7.18;;;;;;;28.24;100.00;100751.69;5061426;28;20077;-76
2022/06/12 09:46:01;;;;;;;11.23;8.68;;;;;;;28.29;100.00;100748.59;5093076;28;20475;-77
2022/06/12 09:48:53;;;;;;;10.10;7.53;;;;;;;28.20;100.00;100728.72;5094959;28;20051;-77
2022/06/12 09:52:10;;;;;;;8.82;7.40;;;;;;;28.91;100.00;100735.63;5093639;28;20056;-78
2022/06/12 09:55:19;;;;;;;9.93;7.18;;;;;;;28.68;100.00;100726.97;5093934;28;20028;-77
2022/06/12 09:58:14;;;;;;;8.98;7.80;;;;;;;29.14;100.00;100721.75;5079795;28;20356;-78
2022/06/12 10:01:11;;;;;;;12.23;7.97;;;;;;;29.66;100.00;100726.56;5094954;28;20042;-80
2022/06/12 10:04:09;;;;;;;8.90;7.03;;;;;;;29.25;100.00;100724.25;5079376;28;20016;-80
2022/06/12 10:07:21;;;;;;;10.52;8.07;;;;;;;29.12;100.00;100722.84;5093737;28;20023;-77
2022/06/12 10:10:36;;;;;;;8.00;6.78;;;;;;;29.11;100.00;100711.22;5094196;28;20456;-77
2022/06/12 10:13:29;;;;;;;8.50;7.70;;;;;;;29.45;100.00;100715.09;5094679;28;20032;-80
2022/06/12 10:16:39;;;;;;;10.13;8.65;;;;;;;29.76;100.00;100705.78;5093847;28;20044;-78
2022/06/12 10:19:36;;;;;;;8.25;7.45;;;;;;;28.62;100.00;100708.69;5093671;28;20024;-82
2022/06/12 10:22:45;;;;;;;10.75;7.43;;;;;;;28.92;100.00;100688.75;5094365;28;20152;-79
2022/06/12 10:25:34;;;;;;;9.32;7.78;;;;;;;28.61;100.00;100690.78;5093370;28;20027;-79
2022/06/12 10:28:34;;;;;;;11.20;7.90;;;;;;;28.76;100.00;100686.66;5093550;28;20070;-80
2022/06/12 10:31:20;;;;;;;9.70;7.65;;;;;;;29.40;100.00;100682.31;5093539;28;20024;-81
2022/06/12 10:34:20;;;;;;;8.60;7.60;;;;;;;29.18;100.00;100679.97;5094121;28;20028;-81
2022/06/12 10:37:17;;;;;;;9.45;8.23;;;;;;;29.52;100.00;100681.13;5093641;28;20085;-81
2022/06/12 10:40:05;;;;;;;8.80;6.63;;;;;;;29.04;100.00;100677.72;5093281;28;20067;-82
2022/06/12 10:42:54;;;;;;;9.48;5.95;;;;;;;28.08;100.00;100681.31;5079426;28;20066;-77
2022/06/12 10:45:41;;;;;;;6.78;6.07;;;;;;;28.57;100.00;100677.72;5094048;28;20079;-80
2022/06/12 10:48:31;;;;;;;8.88;6.05;;;;;;;28.82;100.00;100663.66;5093657;28;20047;-76
2022/06/12 10:51:17;;;;;;;10.85;6.30;;;;;;;29.46;100.00;100665.53;5093531;28;20032;-79
2022/06/12 10:54:16;;;;;;;8.55;6.00;;;;;;;28.96;100.00;100664.06;5095649;28;20020;-77
2022/06/12 10:57:44;;;;;;;7.35;5.88;;;;;;;29.61;100.00;100672.16;5094776;28;20460;-79
2022/06/12 11:00:39;;;;;;;10.63;6.40;;;;;;;29.65;100.00;100664.63;5083305;28;20107;-77
2022/06/12 11:03:45;;;;;;;7.50;5.95;;;;;;;29.96;100.00;100653.34;5082864;28;20094;-77
2022/06/12 11:06:55;;;;;;;8.38;6.07;;;;;;;29.43;100.00;100649.63;5097247;28;20393;-78
2022/06/12 11:09:59;;;;;;;9.95;6.28;;;;;;;29.17;100.00;100643.16;5096520;28;20092;-77
2022/06/12 11:13:23;;;;;;;25.52;22.60;;;;;;;29.50;100.00;100631.78;5095709;28;20028;-76
2022/06/12 11:16:28;;;;;;;8.88;6.30;;;;;;;29.40;100.00;100627.44;5095769;28;20100;-76
2022/06/12 11:19:29;;;;;;;7.72;6.03;;;;;;;28.96;100.00;100618.19;5096568;28;20035;-76
2022/06/12 11:22:58;;;;;;;20.73;6.63;;;;;;;29.60;100.00;100621.84;5096208;28;20449;-77
2022/06/12 11:26:22;;;;;;;11.02;6.63;;;;;;;29.97;100.00;100628.03;5079653;28;20040;-76
2022/06/12 11:29:41;;;;;;;8.23;6.18;;;;;;;29.63;100.00;100615.28;5097180;28;20035;-77
2022/06/12 11:32:33;;;;;;;8.57;6.07;;;;;;;29.49;100.00;100611.19;5096107;28;20043;-77
2022/06/12 11:35:31;;;;;;;11.85;7.30;;;;;;;29.58;100.00;100596.81;5097073;28;20028;-77
2022/06/12 11:38:16;;;;;;;8.32;6.38;;;;;;;30.38;100.00;100600.41;5096201;28;20024;-77
2022/06/12 11:41:18;;;;;;;9.65;6.30;;;;;;;29.54;100.00;100590.00;5095959;28;20035;-76
2022/06/12 11:44:40;;;;;;;7.25;6.10;;;;;;;30.11;100.00;100599.63;5095623;28;20032;-76
2022/06/12 11:47:41;;;;;;;9.40;6.50;;;;;;;29.40;100.00;100595.91;5096096;28;20471;-76
2022/06/12 11:50:57;;;;;;;9.13;6.60;;;;;;;29.10;100.00;100593.50;5095953;28;20175;-77
2022/06/12 11:54:12;;;;;;;7.55;6.75;;;;;;;28.10;100.00;100605.75;5096623;28;20032;-77
2022/06/12 11:57:12;;;;;;;12.13;7.60;;;;;;;27.94;100.00;100613.53;5081531;28;20408;-76
2022/06/12 12:00:04;;;;;;;18.75;16.65;;;;;;;27.37;100.00;100623.09;5081637;28;20452;-78
2022/06/12 12:03:14;;;;;;;11.23;7.30;;;;;;;27.37;100.00;100628.50;5094823;28;20205;-76
2022/06/12 12:06:27;;;;;;;15.35;6.05;;;;;;;26.40;100.00;100656.69;5095950;28;20059;-76
2022/06/12 12:09:48;;;;;;;6.32;3.42;;;;;;;25.54;100.00;100654.03;5095071;28;20360;-77
2022/06/12 12:12:38;;;;;;;14.80;3.60;;;;;;;25.19;100.00;100638.03;5096402;28;20038;-76
2022/06/12 12:15:29;;;;;;;5.53;3.35;;;;;;;24.99;100.00;100616.47;5095035;28;20048;-77
2022/06/12 12:18:29;;;;;;;5.30;3.65;;;;;;;25.04;100.00;100614.25;5081488;28;20059;-77
2022/06/12 12:21:25;;;;;;;8.25;3.85;;;;;;;25.19;100.00;100613.06;5095782;28;20032;-78
2022/06/12 12:24:17;;;;;;;8.32;3.53;;;;;;;25.03;100.00;100613.41;5095792;28;20073;-76
2022/06/12 12:27:11;;;;;;;6.43;3.95;;;;;;;25.13;100.00;100606.34;5095015;28;20073;-77
2022/06/12 12:30:01;;;;;;;8.65;4.32;;;;;;;25.18;100.00;100616.69;5081431;28;20085;-76
2022/06/12 12:32:53;;;;;;;10.85;5.53;;;;;;;25.42;100.00;100636.22;5095209;28;20107;-78
2022/06/12 12:42:00;;;;;;;9.02;4.55;;;;;;;21.13;100.00;100625.25;5095134;28;20028;-73
2022/06/12 12:44:46;;;;;;;8.30;5.15;;;;;;;21.47;100.00;100615.03;5094531;28;20470;-75
2022/06/12 12:47:33;;;;;;;9.05;5.57;;;;;;;21.39;100.00;100606.66;5094943;28;20023;-74
2022/06/12 12:50:19;;;;;;;10.32;7.05;;;;;;;21.52;100.00;100607.59;5094172;28;20043;-74
2022/06/12 12:53:18;;;;;;;10.52;6.88;;;;;;;21.99;100.00;100624.03;5079690;28;20357;-74
2022/06/12 12:56:10;;;;;;;9.70;8.13;;;;;;;22.06;100.00;100627.19;5094903;28;20460;-75
2022/06/12 12:59:01;;;;;;;12.27;9.38;;;;;;;22.32;100.00;100636.97;5094715;28;20074;-74
2022/06/12 13:01:49;;;;;;;10.93;9.55;;;;;;;22.29;100.00;100632.72;5093872;28;20062;-76
2022/06/12 13:04:35;;;;;;;10.45;9.15;;;;;;;22.44;100.00;100621.00;5095544;28;20035;-76
2022/06/12 13:07:58;;;;;;;12.35;11.05;;;;;;;22.94;100.00;100622.88;5094034;28;20031;-76
2022/06/12 13:11:02;;;;;;;16.13;11.80;;;;;;;23.04;100.00;100632.84;5095415;28;20031;-75
2022/06/12 13:14:06;;;;;;;15.10;11.95;;;;;;;23.20;100.00;100633.47;5093024;28;20166;-75
2022/06/12 13:16:52;;;;;;;15.85;11.82;;;;;;;23.15;100.00;100632.09;5080436;28;20071;-77
2022/06/12 13:19:59;;;;;;;11.43;10.30;;;;;;;22.99;100.00;100623.44;5079798;28;20023;-76
2022/06/12 13:22:50;;;;;;;13.43;10.15;;;;;;;23.48;100.00;100627.03;5094599;28;20047;-77
2022/06/12 13:25:44;;;;;;;12.05;9.13;;;;;;;23.45;100.00;100619.25;5093471;28;20437;-77